sensor_id;sensor_type;location;lat;lon;timestamp;P1;durP1;ratioP1;P2;durP2;ratioP2
11711;SDS011;5912;51.034;6.984;2023-07-20T00:01:25;5.97;;;2.72;;
11711;SDS011;5912;51.034;6.984;2023-07-20T00:03:50;6.00;;;3.05;;
11711;SDS011;5912;51.034;6.984;2023-07-20T00:06:23;3.55;;;2.33;;
11711;SDS011;5912;51.034;6.984;2023-07-20T00:08:50;4.05;;;2.60;;
11711;SDS011;5912;51.034;6.984;2023-07-20T00:11:15;6.68;;;2.83;;
11711;SDS011;5912;51.034;6.984;2023-07-20T00:13:41;5.97;;;2.67;;
11711;SDS011;5912;51.034;6.984;2023-07-20T00:16:06;4.35;;;2.50;;
11711;SDS011;5912;51.034;6.984;2023-07-20T00:18:32;4.35;;;2.78;;
11711;SDS011;5912;51.034;6.984;2023-07-20T00:20:57;3.63;;;2.65;;
11711;SDS011;5912;51.034;6.984;2023-07-20T00:23:24;4.43;;;2.55;;
11711;SDS011;5912;51.034;6.984;2023-07-20T00:25:50;2.88;;;2.28;;
11711;SDS011;5912;51.034;6.984;2023-07-20T00:28:16;3.22;;;2.03;;
11711;SDS011;5912;51.034;6.984;2023-07-20T00:30:41;3.83;;;2.00;;
11711;SDS011;5912;51.034;6.984;2023-07-20T00:33:09;5.40;;;2.28;;
11711;SDS011;5912;51.034;6.984;2023-07-20T00:35:36;4.85;;;2.35;;
11711;SDS011;5912;51.034;6.984;2023-07-20T00:38:02;3.90;;;2.03;;
11711;SDS011;5912;51.034;6.984;2023-07-20T00:40:28;2.03;;;1.83;;
11711;SDS011;5912;51.034;6.984;2023-07-20T00:42:53;2.45;;;2.15;;
11711;SDS011;5912;51.034;6.984;2023-07-20T00:45:18;2.85;;;1.98;;
11711;SDS011;5912;51.034;6.984;2023-07-20T00:47:44;3.88;;;2.30;;
11711;SDS011;5912;51.034;6.984;2023-07-20T00:50:09;5.72;;;2.35;;
11711;SDS011;5912;51.034;6.984;2023-07-20T00:52:35;5.07;;;2.90;;
11711;SDS011;5912;51.034;6.984;2023-07-20T00:55:04;5.35;;;2.42;;
11711;SDS011;5912;51.034;6.984;2023-07-20T00:57:31;4.45;;;2.60;;
11711;SDS011;5912;51.034;6.984;2023-07-20T00:59:57;4.22;;;2.20;;
11711;SDS011;5912;51.034;6.984;2023-07-20T01:02:23;4.38;;;2.13;;
11711;SDS011;5912;51.034;6.984;2023-07-20T01:04:48;3.05;;;2.30;;
11711;SDS011;5912;51.034;6.984;2023-07-20T01:07:24;3.28;;;2.10;;
11711;SDS011;5912;51.034;6.984;2023-07-20T01:09:53;4.05;;;2.40;;
11711;SDS011;5912;51.034;6.984;2023-07-20T01:12:26;2.65;;;2.00;;
11711;SDS011;5912;51.034;6.984;2023-07-20T01:14:55;2.55;;;2.17;;
11711;SDS011;5912;51.034;6.984;2023-07-20T01:17:21;3.85;;;2.10;;
11711;SDS011;5912;51.034;6.984;2023-07-20T01:19:47;3.47;;;2.45;;
11711;SDS011;5912;51.034;6.984;2023-07-20T01:22:28;3.38;;;2.00;;
11711;SDS011;5912;51.034;6.984;2023-07-20T01:25:11;4.57;;;2.25;;
11711;SDS011;5912;51.034;6.984;2023-07-20T01:33:34;5.18;;;2.60;;
11711;SDS011;5912;51.034;6.984;2023-07-20T01:36:00;4.03;;;2.33;;
11711;SDS011;5912;51.034;6.984;2023-07-20T01:38:27;2.10;;;1.90;;
11711;SDS011;5912;51.034;6.984;2023-07-20T01:40:53;3.58;;;2.22;;
11711;SDS011;5912;51.034;6.984;2023-07-20T01:43:19;3.22;;;2.20;;
11711;SDS011;5912;51.034;6.984;2023-07-20T01:45:45;5.10;;;2.55;;
11711;SDS011;5912;51.034;6.984;2023-07-20T01:48:10;2.60;;;2.13;;
11711;SDS011;5912;51.034;6.984;2023-07-20T01:50:36;5.00;;;2.38;;
11711;SDS011;5912;51.034;6.984;2023-07-20T01:53:02;3.45;;;2.38;;
11711;SDS011;5912;51.034;6.984;2023-07-20T01:55:27;3.15;;;2.30;;
11711;SDS011;5912;51.034;6.984;2023-07-20T01:57:53;4.65;;;2.58;;
11711;SDS011;5912;51.034;6.984;2023-07-20T02:00:19;4.38;;;2.05;;
11711;SDS011;5912;51.034;6.984;2023-07-20T02:02:48;3.72;;;2.40;;
11711;SDS011;5912;51.034;6.984;2023-07-20T02:05:14;6.35;;;2.55;;
11711;SDS011;5912;51.034;6.984;2023-07-20T02:07:39;3.08;;;2.33;;
11711;SDS011;5912;51.034;6.984;2023-07-20T02:10:05;3.63;;;2.40;;
11711;SDS011;5912;51.034;6.984;2023-07-20T02:12:30;4.57;;;2.15;;
11711;SDS011;5912;51.034;6.984;2023-07-20T02:14:56;3.03;;;1.98;;
11711;SDS011;5912;51.034;6.984;2023-07-20T02:17:21;3.08;;;2.13;;
11711;SDS011;5912;51.034;6.984;2023-07-20T02:19:50;2.80;;;2.40;;
11711;SDS011;5912;51.034;6.984;2023-07-20T02:22:17;5.07;;;2.15;;
11711;SDS011;5912;51.034;6.984;2023-07-20T02:24:42;3.60;;;2.17;;
11711;SDS011;5912;51.034;6.984;2023-07-20T02:27:08;2.75;;;1.88;;
11711;SDS011;5912;51.034;6.984;2023-07-20T02:29:33;4.05;;;2.30;;
11711;SDS011;5912;51.034;6.984;2023-07-20T02:31:59;3.22;;;2.10;;
11711;SDS011;5912;51.034;6.984;2023-07-20T02:34:24;2.63;;;2.17;;
11711;SDS011;5912;51.034;6.984;2023-07-20T02:36:49;3.50;;;2.03;;
11711;SDS011;5912;51.034;6.984;2023-07-20T02:39:15;3.42;;;1.90;;
11711;SDS011;5912;51.034;6.984;2023-07-20T02:41:41;3.35;;;2.08;;
11711;SDS011;5912;51.034;6.984;2023-07-20T02:44:06;2.75;;;1.90;;
11711;SDS011;5912;51.034;6.984;2023-07-20T02:46:32;2.00;;;1.70;;
11711;SDS011;5912;51.034;6.984;2023-07-20T02:48:57;3.95;;;2.20;;
11711;SDS011;5912;51.034;6.984;2023-07-20T02:51:22;4.07;;;2.50;;
11711;SDS011;5912;51.034;6.984;2023-07-20T02:53:48;2.70;;;2.33;;
11711;SDS011;5912;51.034;6.984;2023-07-20T02:56:13;3.80;;;2.17;;
11711;SDS011;5912;51.034;6.984;2023-07-20T02:58:40;2.30;;;2.05;;
11711;SDS011;5912;51.034;6.984;2023-07-20T03:01:08;3.72;;;2.45;;
11711;SDS011;5912;51.034;6.984;2023-07-20T03:03:34;3.90;;;2.60;;
11711;SDS011;5912;51.034;6.984;2023-07-20T03:06:03;3.47;;;2.38;;
11711;SDS011;5912;51.034;6.984;2023-07-20T03:08:33;3.50;;;2.42;;
11711;SDS011;5912;51.034;6.984;2023-07-20T03:10:59;3.30;;;2.70;;
11711;SDS011;5912;51.034;6.984;2023-07-20T03:13:24;7.60;;;3.00;;
11711;SDS011;5912;51.034;6.984;2023-07-20T03:15:51;4.72;;;2.70;;
11711;SDS011;5912;51.034;6.984;2023-07-20T03:18:17;3.28;;;2.40;;
11711;SDS011;5912;51.034;6.984;2023-07-20T03:20:42;3.28;;;2.65;;
11711;SDS011;5912;51.034;6.984;2023-07-20T03:23:08;4.75;;;2.80;;
11711;SDS011;5912;51.034;6.984;2023-07-20T03:25:33;3.25;;;2.70;;
11711;SDS011;5912;51.034;6.984;2023-07-20T03:27:59;3.00;;;2.33;;
11711;SDS011;5912;51.034;6.984;2023-07-20T03:30:24;4.55;;;2.60;;
11711;SDS011;5912;51.034;6.984;2023-07-20T03:32:50;4.22;;;2.80;;
11711;SDS011;5912;51.034;6.984;2023-07-20T03:35:16;4.38;;;2.45;;
11711;SDS011;5912;51.034;6.984;2023-07-20T03:37:41;4.53;;;3.20;;
11711;SDS011;5912;51.034;6.984;2023-07-20T03:40:07;4.68;;;2.20;;
11711;SDS011;5912;51.034;6.984;2023-07-20T03:42:33;3.55;;;2.63;;
11711;SDS011;5912;51.034;6.984;2023-07-20T03:44:58;3.33;;;2.50;;
11711;SDS011;5912;51.034;6.984;2023-07-20T03:47:23;2.97;;;2.50;;
11711;SDS011;5912;51.034;6.984;2023-07-20T03:49:49;3.63;;;2.45;;
11711;SDS011;5912;51.034;6.984;2023-07-20T03:52:14;3.80;;;2.50;;
11711;SDS011;5912;51.034;6.984;2023-07-20T03:54:39;7.55;;;2.85;;
11711;SDS011;5912;51.034;6.984;2023-07-20T03:57:05;4.32;;;2.45;;
11711;SDS011;5912;51.034;6.984;2023-07-20T03:59:30;3.83;;;2.45;;
11711;SDS011;5912;51.034;6.984;2023-07-20T04:01:56;3.92;;;2.45;;
11711;SDS011;5912;51.034;6.984;2023-07-20T04:04:21;3.65;;;2.80;;
11711;SDS011;5912;51.034;6.984;2023-07-20T04:06:46;4.00;;;2.53;;
11711;SDS011;5912;51.034;6.984;2023-07-20T04:09:12;5.07;;;2.88;;
11711;SDS011;5912;51.034;6.984;2023-07-20T04:11:37;7.18;;;3.42;;
11711;SDS011;5912;51.034;6.984;2023-07-20T04:14:03;2.90;;;2.50;;
11711;SDS011;5912;51.034;6.984;2023-07-20T04:16:29;4.10;;;2.78;;
11711;SDS011;5912;51.034;6.984;2023-07-20T04:18:55;4.50;;;2.50;;
11711;SDS011;5912;51.034;6.984;2023-07-20T04:21:21;3.95;;;2.70;;
11711;SDS011;5912;51.034;6.984;2023-07-20T04:23:46;4.82;;;2.60;;
11711;SDS011;5912;51.034;6.984;2023-07-20T04:26:12;4.47;;;2.75;;
11711;SDS011;5912;51.034;6.984;2023-07-20T04:28:37;3.05;;;2.65;;
11711;SDS011;5912;51.034;6.984;2023-07-20T04:31:11;5.63;;;2.90;;
11711;SDS011;5912;51.034;6.984;2023-07-20T04:33:38;7.53;;;3.30;;
11711;SDS011;5912;51.034;6.984;2023-07-20T04:36:04;3.78;;;2.00;;
11711;SDS011;5912;51.034;6.984;2023-07-20T04:38:29;5.05;;;2.67;;
11711;SDS011;5912;51.034;6.984;2023-07-20T04:40:55;4.70;;;2.58;;
11711;SDS011;5912;51.034;6.984;2023-07-20T04:43:20;3.58;;;2.25;;
11711;SDS011;5912;51.034;6.984;2023-07-20T04:45:46;3.33;;;2.30;;
11711;SDS011;5912;51.034;6.984;2023-07-20T04:48:12;4.00;;;2.65;;
11711;SDS011;5912;51.034;6.984;2023-07-20T04:50:42;5.65;;;2.67;;
11711;SDS011;5912;51.034;6.984;2023-07-20T04:53:08;4.88;;;2.40;;
11711;SDS011;5912;51.034;6.984;2023-07-20T04:55:35;4.00;;;2.30;;
11711;SDS011;5912;51.034;6.984;2023-07-20T04:58:02;5.03;;;2.72;;
11711;SDS011;5912;51.034;6.984;2023-07-20T05:00:28;4.05;;;2.63;;
11711;SDS011;5912;51.034;6.984;2023-07-20T05:02:54;3.17;;;2.28;;
11711;SDS011;5912;51.034;6.984;2023-07-20T05:05:19;4.53;;;2.55;;
11711;SDS011;5912;51.034;6.984;2023-07-20T05:07:45;5.18;;;2.90;;
11711;SDS011;5912;51.034;6.984;2023-07-20T05:10:10;3.65;;;2.83;;
11711;SDS011;5912;51.034;6.984;2023-07-20T05:12:36;4.68;;;2.55;;
11711;SDS011;5912;51.034;6.984;2023-07-20T05:15:01;4.97;;;2.70;;
11711;SDS011;5912;51.034;6.984;2023-07-20T05:17:28;4.50;;;2.58;;
11711;SDS011;5912;51.034;6.984;2023-07-20T05:19:54;4.10;;;2.15;;
11711;SDS011;5912;51.034;6.984;2023-07-20T05:22:19;3.85;;;2.15;;
11711;SDS011;5912;51.034;6.984;2023-07-20T05:24:45;5.35;;;2.95;;
11711;SDS011;5912;51.034;6.984;2023-07-20T05:27:10;5.00;;;2.90;;
11711;SDS011;5912;51.034;6.984;2023-07-20T05:29:35;4.40;;;3.30;;
11711;SDS011;5912;51.034;6.984;2023-07-20T05:32:01;6.00;;;2.70;;
11711;SDS011;5912;51.034;6.984;2023-07-20T05:34:27;4.85;;;3.13;;
11711;SDS011;5912;51.034;6.984;2023-07-20T05:36:53;3.83;;;2.85;;
11711;SDS011;5912;51.034;6.984;2023-07-20T05:39:19;4.00;;;2.90;;
11711;SDS011;5912;51.034;6.984;2023-07-20T05:41:44;6.90;;;4.40;;
11711;SDS011;5912;51.034;6.984;2023-07-20T05:44:09;5.53;;;3.53;;
11711;SDS011;5912;51.034;6.984;2023-07-20T05:46:35;6.88;;;3.63;;
11711;SDS011;5912;51.034;6.984;2023-07-20T05:49:00;8.00;;;4.25;;
11711;SDS011;5912;51.034;6.984;2023-07-20T05:51:26;5.40;;;3.75;;
11711;SDS011;5912;51.034;6.984;2023-07-20T05:53:52;7.88;;;4.05;;
11711;SDS011;5912;51.034;6.984;2023-07-20T05:56:17;6.78;;;4.68;;
11711;SDS011;5912;51.034;6.984;2023-07-20T05:58:43;4.95;;;4.10;;
11711;SDS011;5912;51.034;6.984;2023-07-20T06:01:08;9.93;;;5.20;;
11711;SDS011;5912;51.034;6.984;2023-07-20T06:03:33;6.07;;;4.57;;
11711;SDS011;5912;51.034;6.984;2023-07-20T06:06:02;5.88;;;4.53;;
11711;SDS011;5912;51.034;6.984;2023-07-20T06:08:29;7.78;;;5.47;;
11711;SDS011;5912;51.034;6.984;2023-07-20T06:10:57;6.60;;;4.90;;
11711;SDS011;5912;51.034;6.984;2023-07-20T06:13:23;5.20;;;4.20;;
11711;SDS011;5912;51.034;6.984;2023-07-20T06:15:48;6.40;;;4.60;;
11711;SDS011;5912;51.034;6.984;2023-07-20T06:18:14;5.97;;;4.45;;
11711;SDS011;5912;51.034;6.984;2023-07-20T06:20:39;6.90;;;4.97;;
11711;SDS011;5912;51.034;6.984;2023-07-20T06:23:05;6.93;;;4.05;;
11711;SDS011;5912;51.034;6.984;2023-07-20T06:25:31;7.68;;;5.30;;
11711;SDS011;5912;51.034;6.984;2023-07-20T06:27:56;6.50;;;4.22;;
11711;SDS011;5912;51.034;6.984;2023-07-20T06:30:22;5.78;;;5.18;;
11711;SDS011;5912;51.034;6.984;2023-07-20T06:32:48;6.10;;;4.72;;
11711;SDS011;5912;51.034;6.984;2023-07-20T06:35:13;6.43;;;4.05;;
11711;SDS011;5912;51.034;6.984;2023-07-20T06:37:39;5.47;;;4.60;;
11711;SDS011;5912;51.034;6.984;2023-07-20T06:40:04;8.80;;;5.50;;
11711;SDS011;5912;51.034;6.984;2023-07-20T06:42:31;6.05;;;4.70;;
11711;SDS011;5912;51.034;6.984;2023-07-20T06:44:57;6.68;;;5.97;;
11711;SDS011;5912;51.034;6.984;2023-07-20T06:47:22;9.52;;;6.95;;
11711;SDS011;5912;51.034;6.984;2023-07-20T06:49:48;8.63;;;6.07;;
11711;SDS011;5912;51.034;6.984;2023-07-20T06:52:13;6.63;;;5.80;;
11711;SDS011;5912;51.034;6.984;2023-07-20T06:54:39;7.47;;;5.72;;
11711;SDS011;5912;51.034;6.984;2023-07-20T06:57:05;7.18;;;4.63;;
11711;SDS011;5912;51.034;6.984;2023-07-20T06:59:30;7.28;;;5.35;;
11711;SDS011;5912;51.034;6.984;2023-07-20T07:01:56;5.28;;;4.18;;
11711;SDS011;5912;51.034;6.984;2023-07-20T07:04:21;6.32;;;4.70;;
11711;SDS011;5912;51.034;6.984;2023-07-20T07:06:46;5.03;;;4.38;;
11711;SDS011;5912;51.034;6.984;2023-07-20T07:09:13;6.03;;;4.10;;
11711;SDS011;5912;51.034;6.984;2023-07-20T07:11:38;7.30;;;4.15;;
11711;SDS011;5912;51.034;6.984;2023-07-20T07:14:03;8.63;;;5.22;;
11711;SDS011;5912;51.034;6.984;2023-07-20T07:16:29;4.57;;;3.70;;
11711;SDS011;5912;51.034;6.984;2023-07-20T07:18:54;3.47;;;3.17;;
11711;SDS011;5912;51.034;6.984;2023-07-20T07:21:20;3.83;;;3.03;;
11711;SDS011;5912;51.034;6.984;2023-07-20T07:23:46;4.18;;;3.13;;
11711;SDS011;5912;51.034;6.984;2023-07-20T07:26:12;5.70;;;4.20;;
11711;SDS011;5912;51.034;6.984;2023-07-20T07:28:37;4.32;;;3.50;;
11711;SDS011;5912;51.034;6.984;2023-07-20T07:31:06;4.45;;;3.30;;
11711;SDS011;5912;51.034;6.984;2023-07-20T07:36:38;7.10;;;4.78;;
11711;SDS011;5912;51.034;6.984;2023-07-20T07:39:03;4.07;;;3.10;;
11711;SDS011;5912;51.034;6.984;2023-07-20T07:41:28;4.35;;;2.90;;
11711;SDS011;5912;51.034;6.984;2023-07-20T07:43:55;4.40;;;3.70;;
11711;SDS011;5912;51.034;6.984;2023-07-20T07:46:20;3.95;;;3.53;;
11711;SDS011;5912;51.034;6.984;2023-07-20T07:48:45;4.60;;;3.95;;
11711;SDS011;5912;51.034;6.984;2023-07-20T07:51:11;3.75;;;2.75;;
11711;SDS011;5912;51.034;6.984;2023-07-20T07:53:36;5.43;;;3.40;;
11711;SDS011;5912;51.034;6.984;2023-07-20T07:56:02;3.90;;;3.20;;
11711;SDS011;5912;51.034;6.984;2023-07-20T07:58:28;2.85;;;2.22;;
11711;SDS011;5912;51.034;6.984;2023-07-20T08:00:53;3.40;;;2.95;;
11711;SDS011;5912;51.034;6.984;2023-07-20T08:03:19;4.15;;;2.80;;
11711;SDS011;5912;51.034;6.984;2023-07-20T08:05:44;3.83;;;3.15;;
11711;SDS011;5912;51.034;6.984;2023-07-20T08:08:09;3.80;;;2.78;;
11711;SDS011;5912;51.034;6.984;2023-07-20T08:10:35;4.13;;;2.97;;
11711;SDS011;5912;51.034;6.984;2023-07-20T08:13:00;5.40;;;3.08;;
11711;SDS011;5912;51.034;6.984;2023-07-20T08:15:26;3.97;;;2.83;;
11711;SDS011;5912;51.034;6.984;2023-07-20T08:17:51;3.22;;;2.47;;
11711;SDS011;5912;51.034;6.984;2023-07-20T08:20:17;4.20;;;2.40;;
11711;SDS011;5912;51.034;6.984;2023-07-20T08:22:42;4.25;;;2.45;;
11711;SDS011;5912;51.034;6.984;2023-07-20T08:25:08;2.83;;;2.53;;
11711;SDS011;5912;51.034;6.984;2023-07-20T08:27:34;2.40;;;2.05;;
11711;SDS011;5912;51.034;6.984;2023-07-20T08:30:00;3.03;;;2.08;;
11711;SDS011;5912;51.034;6.984;2023-07-20T08:32:25;2.80;;;1.80;;
11711;SDS011;5912;51.034;6.984;2023-07-20T08:34:51;3.78;;;1.98;;
11711;SDS011;5912;51.034;6.984;2023-07-20T08:37:17;4.65;;;1.50;;
11711;SDS011;5912;51.034;6.984;2023-07-20T08:39:42;2.30;;;1.80;;
11711;SDS011;5912;51.034;6.984;2023-07-20T08:42:08;1.40;;;1.30;;
11711;SDS011;5912;51.034;6.984;2023-07-20T08:44:35;2.35;;;1.70;;
11711;SDS011;5912;51.034;6.984;2023-07-20T08:47:03;1.52;;;1.27;;
11711;SDS011;5912;51.034;6.984;2023-07-20T08:49:31;2.15;;;1.20;;
11711;SDS011;5912;51.034;6.984;2023-07-20T08:51:57;1.50;;;0.88;;
11711;SDS011;5912;51.034;6.984;2023-07-20T08:54:23;4.40;;;1.20;;
11711;SDS011;5912;51.034;6.984;2023-07-20T08:56:52;4.15;;;1.05;;
11711;SDS011;5912;51.034;6.984;2023-07-20T08:59:20;1.13;;;0.90;;
11711;SDS011;5912;51.034;6.984;2023-07-20T09:01:48;1.23;;;1.13;;
11711;SDS011;5912;51.034;6.984;2023-07-20T09:04:14;1.00;;;0.73;;
11711;SDS011;5912;51.034;6.984;2023-07-20T09:06:41;2.00;;;1.10;;
11711;SDS011;5912;51.034;6.984;2023-07-20T09:09:06;1.88;;;0.85;;
11711;SDS011;5912;51.034;6.984;2023-07-20T09:11:32;1.42;;;1.23;;
11711;SDS011;5912;51.034;6.984;2023-07-20T09:14:07;1.38;;;0.70;;
11711;SDS011;5912;51.034;6.984;2023-07-20T09:16:48;1.40;;;1.10;;
11711;SDS011;5912;51.034;6.984;2023-07-20T09:19:20;1.27;;;0.70;;
11711;SDS011;5912;51.034;6.984;2023-07-20T09:21:46;1.85;;;0.80;;
11711;SDS011;5912;51.034;6.984;2023-07-20T09:24:13;1.02;;;0.68;;
11711;SDS011;5912;51.034;6.984;2023-07-20T09:26:42;0.93;;;0.73;;
11711;SDS011;5912;51.034;6.984;2023-07-20T09:29:09;0.80;;;0.70;;
11711;SDS011;5912;51.034;6.984;2023-07-20T09:31:35;1.95;;;0.80;;
11711;SDS011;5912;51.034;6.984;2023-07-20T09:34:00;1.95;;;1.35;;
11711;SDS011;5912;51.034;6.984;2023-07-20T09:36:26;0.88;;;0.77;;
11711;SDS011;5912;51.034;6.984;2023-07-20T09:38:52;1.20;;;0.75;;
11711;SDS011;5912;51.034;6.984;2023-07-20T09:41:18;1.33;;;0.80;;
11711;SDS011;5912;51.034;6.984;2023-07-20T09:43:45;1.85;;;0.90;;
11711;SDS011;5912;51.034;6.984;2023-07-20T09:46:11;1.45;;;0.60;;
11711;SDS011;5912;51.034;6.984;2023-07-20T09:48:37;1.10;;;0.63;;
11711;SDS011;5912;51.034;6.984;2023-07-20T09:51:03;1.13;;;0.70;;
11711;SDS011;5912;51.034;6.984;2023-07-20T09:53:30;1.05;;;0.70;;
11711;SDS011;5912;51.034;6.984;2023-07-20T09:55:57;1.42;;;0.80;;
11711;SDS011;5912;51.034;6.984;2023-07-20T09:58:25;0.82;;;0.77;;
11711;SDS011;5912;51.034;6.984;2023-07-20T10:00:51;0.68;;;0.60;;
11711;SDS011;5912;51.034;6.984;2023-07-20T10:03:25;1.05;;;0.80;;
11711;SDS011;5912;51.034;6.984;2023-07-20T10:06:00;2.25;;;0.80;;
11711;SDS011;5912;51.034;6.984;2023-07-20T10:08:30;0.60;;;0.50;;
11711;SDS011;5912;51.034;6.984;2023-07-20T10:10:57;1.33;;;0.65;;
11711;SDS011;5912;51.034;6.984;2023-07-20T10:13:26;1.67;;;0.68;;
11711;SDS011;5912;51.034;6.984;2023-07-20T10:15:54;1.40;;;0.60;;
11711;SDS011;5912;51.034;6.984;2023-07-20T10:18:24;1.98;;;0.68;;
11711;SDS011;5912;51.034;6.984;2023-07-20T10:20:54;0.80;;;0.47;;
11711;SDS011;5912;51.034;6.984;2023-07-20T10:23:22;0.30;;;0.30;;
11711;SDS011;5912;51.034;6.984;2023-07-20T10:25:48;1.27;;;0.50;;
11711;SDS011;5912;51.034;6.984;2023-07-20T10:28:15;0.93;;;0.43;;
11711;SDS011;5912;51.034;6.984;2023-07-20T10:30:41;2.47;;;0.50;;
11711;SDS011;5912;51.034;6.984;2023-07-20T10:33:07;1.33;;;0.57;;
11711;SDS011;5912;51.034;6.984;2023-07-20T10:35:53;1.23;;;0.80;;
11711;SDS011;5912;51.034;6.984;2023-07-20T10:38:19;2.03;;;0.60;;
11711;SDS011;5912;51.034;6.984;2023-07-20T10:40:55;1.38;;;0.40;;
11711;SDS011;5912;51.034;6.984;2023-07-20T10:43:20;0.95;;;0.70;;
11711;SDS011;5912;51.034;6.984;2023-07-20T10:45:50;0.40;;;0.40;;
11711;SDS011;5912;51.034;6.984;2023-07-20T10:48:18;0.52;;;0.50;;
11711;SDS011;5912;51.034;6.984;2023-07-20T10:50:44;1.58;;;0.57;;
11711;SDS011;5912;51.034;6.984;2023-07-20T10:55:37;1.30;;;0.60;;
11711;SDS011;5912;51.034;6.984;2023-07-20T10:58:13;0.52;;;0.52;;
11711;SDS011;5912;51.034;6.984;2023-07-20T11:00:58;0.63;;;0.50;;
11711;SDS011;5912;51.034;6.984;2023-07-20T11:03:27;0.30;;;0.30;;
11711;SDS011;5912;51.034;6.984;2023-07-20T11:05:56;1.27;;;0.40;;
11711;SDS011;5912;51.034;6.984;2023-07-20T11:08:42;0.40;;;0.38;;
11711;SDS011;5912;51.034;6.984;2023-07-20T11:11:21;0.82;;;0.55;;
11711;SDS011;5912;51.034;6.984;2023-07-20T11:19:05;0.60;;;0.60;;
11711;SDS011;5912;51.034;6.984;2023-07-20T11:21:37;0.28;;;0.28;;
11711;SDS011;5912;51.034;6.984;2023-07-20T11:24:06;0.43;;;0.32;;
11711;SDS011;5912;51.034;6.984;2023-07-20T11:26:54;2.15;;;0.50;;
11711;SDS011;5912;51.034;6.984;2023-07-20T11:29:20;0.70;;;0.40;;
11711;SDS011;5912;51.034;6.984;2023-07-20T11:31:47;0.40;;;0.30;;
11711;SDS011;5912;51.034;6.984;2023-07-20T11:34:14;0.70;;;0.50;;
11711;SDS011;5912;51.034;6.984;2023-07-20T11:36:40;0.35;;;0.35;;
11711;SDS011;5912;51.034;6.984;2023-07-20T11:39:10;1.98;;;0.65;;
11711;SDS011;5912;51.034;6.984;2023-07-20T11:41:37;1.05;;;0.40;;
11711;SDS011;5912;51.034;6.984;2023-07-20T11:44:04;0.30;;;0.30;;
11711;SDS011;5912;51.034;6.984;2023-07-20T11:46:31;0.98;;;0.30;;
11711;SDS011;5912;51.034;6.984;2023-07-20T11:49:00;0.43;;;0.43;;
11711;SDS011;5912;51.034;6.984;2023-07-20T11:51:27;1.00;;;0.40;;
11711;SDS011;5912;51.034;6.984;2023-07-20T11:53:53;0.40;;;0.40;;
11711;SDS011;5912;51.034;6.984;2023-07-20T11:56:19;1.42;;;0.57;;
11711;SDS011;5912;51.034;6.984;2023-07-20T11:58:44;0.82;;;0.68;;
11711;SDS011;5912;51.034;6.984;2023-07-20T12:01:11;1.92;;;0.65;;
11711;SDS011;5912;51.034;6.984;2023-07-20T12:03:38;2.15;;;0.68;;
11711;SDS011;5912;51.034;6.984;2023-07-20T12:06:07;0.40;;;0.30;;
11711;SDS011;5912;51.034;6.984;2023-07-20T12:08:33;0.73;;;0.50;;
11711;SDS011;5912;51.034;6.984;2023-07-20T12:10:59;2.17;;;0.50;;
11711;SDS011;5912;51.034;6.984;2023-07-20T12:13:34;1.02;;;0.50;;
11711;SDS011;5912;51.034;6.984;2023-07-20T12:16:06;2.35;;;0.60;;
11711;SDS011;5912;51.034;6.984;2023-07-20T12:18:37;0.63;;;0.50;;
11711;SDS011;5912;51.034;6.984;2023-07-20T12:21:02;0.50;;;0.47;;
11711;SDS011;5912;51.034;6.984;2023-07-20T12:23:34;1.17;;;0.63;;
11711;SDS011;5912;51.034;6.984;2023-07-20T12:26:05;0.65;;;0.45;;
11711;SDS011;5912;51.034;6.984;2023-07-20T12:28:46;0.98;;;0.65;;
11711;SDS011;5912;51.034;6.984;2023-07-20T12:31:11;1.08;;;0.50;;
11711;SDS011;5912;51.034;6.984;2023-07-20T12:33:38;0.80;;;0.57;;
11711;SDS011;5912;51.034;6.984;2023-07-20T12:36:03;0.90;;;0.60;;
11711;SDS011;5912;51.034;6.984;2023-07-20T12:38:29;1.00;;;0.75;;
11711;SDS011;5912;51.034;6.984;2023-07-20T12:40:56;1.45;;;0.70;;
11711;SDS011;5912;51.034;6.984;2023-07-20T12:43:22;0.50;;;0.50;;
11711;SDS011;5912;51.034;6.984;2023-07-20T12:45:47;1.50;;;0.85;;
11711;SDS011;5912;51.034;6.984;2023-07-20T12:48:12;0.63;;;0.40;;
11711;SDS011;5912;51.034;6.984;2023-07-20T12:50:38;1.20;;;0.60;;
11711;SDS011;5912;51.034;6.984;2023-07-20T12:53:03;0.68;;;0.60;;
11711;SDS011;5912;51.034;6.984;2023-07-20T12:55:29;1.05;;;0.50;;
11711;SDS011;5912;51.034;6.984;2023-07-20T12:57:54;0.57;;;0.57;;
11711;SDS011;5912;51.034;6.984;2023-07-20T13:00:20;0.52;;;0.47;;
11711;SDS011;5912;51.034;6.984;2023-07-20T13:02:48;0.57;;;0.50;;
11711;SDS011;5912;51.034;6.984;2023-07-20T13:05:13;0.30;;;0.30;;
11711;SDS011;5912;51.034;6.984;2023-07-20T13:07:40;0.50;;;0.50;;
11711;SDS011;5912;51.034;6.984;2023-07-20T13:10:06;0.50;;;0.50;;
11711;SDS011;5912;51.034;6.984;2023-07-20T13:12:33;0.57;;;0.57;;
11711;SDS011;5912;51.034;6.984;2023-07-20T13:14:59;0.60;;;0.57;;
11711;SDS011;5912;51.034;6.984;2023-07-20T13:17:27;0.50;;;0.50;;
11711;SDS011;5912;51.034;6.984;2023-07-20T13:19:53;1.00;;;0.75;;
11711;SDS011;5912;51.034;6.984;2023-07-20T13:22:19;0.70;;;0.50;;
11711;SDS011;5912;51.034;6.984;2023-07-20T13:24:44;1.00;;;0.68;;
11711;SDS011;5912;51.034;6.984;2023-07-20T13:27:14;1.30;;;0.60;;
11711;SDS011;5912;51.034;6.984;2023-07-20T13:29:40;1.35;;;0.50;;
11711;SDS011;5912;51.034;6.984;2023-07-20T13:32:06;2.50;;;0.70;;
11711;SDS011;5912;51.034;6.984;2023-07-20T13:34:32;1.45;;;0.57;;
11711;SDS011;5912;51.034;6.984;2023-07-20T13:36:57;2.25;;;0.60;;
11711;SDS011;5912;51.034;6.984;2023-07-20T13:39:23;1.13;;;0.70;;
11711;SDS011;5912;51.034;6.984;2023-07-20T13:41:51;1.17;;;0.70;;
11711;SDS011;5912;51.034;6.984;2023-07-20T13:44:16;0.55;;;0.55;;
11711;SDS011;5912;51.034;6.984;2023-07-20T13:46:41;0.60;;;0.60;;
11711;SDS011;5912;51.034;6.984;2023-07-20T13:49:07;0.75;;;0.50;;
11711;SDS011;5912;51.034;6.984;2023-07-20T13:51:32;0.70;;;0.70;;
11711;SDS011;5912;51.034;6.984;2023-07-20T13:53:57;2.72;;;0.75;;
11711;SDS011;5912;51.034;6.984;2023-07-20T13:56:23;1.52;;;0.90;;
11711;SDS011;5912;51.034;6.984;2023-07-20T13:58:49;0.60;;;0.55;;
11711;SDS011;5912;51.034;6.984;2023-07-20T14:01:15;0.80;;;0.55;;
11711;SDS011;5912;51.034;6.984;2023-07-20T14:03:42;0.90;;;0.73;;
11711;SDS011;5912;51.034;6.984;2023-07-20T14:06:08;1.65;;;0.90;;
11711;SDS011;5912;51.034;6.984;2023-07-20T14:08:33;2.95;;;0.80;;
11711;SDS011;5912;51.034;6.984;2023-07-20T14:10:58;0.65;;;0.50;;
11711;SDS011;5912;51.034;6.984;2023-07-20T14:13:24;0.90;;;0.70;;
11711;SDS011;5912;51.034;6.984;2023-07-20T14:15:49;1.05;;;0.50;;
11711;SDS011;5912;51.034;6.984;2023-07-20T14:18:15;1.25;;;0.52;;
11711;SDS011;5912;51.034;6.984;2023-07-20T14:20:41;0.60;;;0.57;;
11711;SDS011;5912;51.034;6.984;2023-07-20T14:23:06;0.60;;;0.60;;
11711;SDS011;5912;51.034;6.984;2023-07-20T14:25:31;1.30;;;0.80;;
11711;SDS011;5912;51.034;6.984;2023-07-20T14:27:58;1.52;;;0.55;;
11711;SDS011;5912;51.034;6.984;2023-07-20T14:30:24;2.35;;;0.60;;
11711;SDS011;5912;51.034;6.984;2023-07-20T14:32:49;1.08;;;0.60;;
11711;SDS011;5912;51.034;6.984;2023-07-20T14:35:15;0.85;;;0.65;;
11711;SDS011;5912;51.034;6.984;2023-07-20T14:37:40;1.42;;;0.60;;
11711;SDS011;5912;51.034;6.984;2023-07-20T14:40:05;0.55;;;0.50;;
11711;SDS011;5912;51.034;6.984;2023-07-20T14:42:32;0.63;;;0.30;;
11711;SDS011;5912;51.034;6.984;2023-07-20T14:44:57;1.50;;;0.57;;
11711;SDS011;5912;51.034;6.984;2023-07-20T14:47:22;2.50;;;0.57;;
11711;SDS011;5912;51.034;6.984;2023-07-20T14:49:48;1.25;;;0.63;;
11711;SDS011;5912;51.034;6.984;2023-07-20T14:52:14;0.60;;;0.60;;
11711;SDS011;5912;51.034;6.984;2023-07-20T14:54:42;0.50;;;0.50;;
11711;SDS011;5912;51.034;6.984;2023-07-20T14:57:08;3.95;;;0.70;;
11711;SDS011;5912;51.034;6.984;2023-07-20T14:59:38;1.20;;;0.85;;
11711;SDS011;5912;51.034;6.984;2023-07-20T15:02:04;1.23;;;0.60;;
11711;SDS011;5912;51.034;6.984;2023-07-20T15:04:30;2.67;;;0.70;;
11711;SDS011;5912;51.034;6.984;2023-07-20T15:06:55;3.70;;;0.50;;
11711;SDS011;5912;51.034;6.984;2023-07-20T15:09:21;1.75;;;0.68;;
11711;SDS011;5912;51.034;6.984;2023-07-20T15:11:47;0.70;;;0.50;;
11711;SDS011;5912;51.034;6.984;2023-07-20T15:14:12;1.35;;;0.60;;